sensor_id;sensor_type;location;lat;lon;timestamp;P1;durP1;ratioP1;P2;durP2;ratioP2
70297;SDS011;57702;44.420;20.298;2023-02-01T00:02:06;19.00;;;10.93;;
70297;SDS011;57702;44.420;20.298;2023-02-01T00:04:32;27.13;;;10.00;;
70297;SDS011;57702;44.420;20.298;2023-02-01T00:06:59;45.53;;;11.52;;
70297;SDS011;57702;44.420;20.298;2023-02-01T00:09:26;24.23;;;6.78;;
70297;SDS011;57702;44.420;20.298;2023-02-01T00:11:52;25.50;;;9.68;;
70297;SDS011;57702;44.420;20.298;2023-02-01T00:14:18;27.98;;;7.80;;
70297;SDS011;57702;44.420;20.298;2023-02-01T00:16:44;20.83;;;6.72;;
70297;SDS011;57702;44.420;20.298;2023-02-01T00:19:12;18.48;;;8.63;;
70297;SDS011;57702;44.420;20.298;2023-02-01T00:21:39;33.10;;;9.35;;
70297;SDS011;57702;44.420;20.298;2023-02-01T00:24:05;23.67;;;8.10;;
70297;SDS011;57702;44.420;20.298;2023-02-01T00:26:33;5.82;;;4.28;;
70297;SDS011;57702;44.420;20.298;2023-02-01T00:29:00;10.57;;;4.78;;
70297;SDS011;57702;44.420;20.298;2023-02-01T00:31:26;29.58;;;7.00;;
70297;SDS011;57702;44.420;20.298;2023-02-01T00:33:52;16.80;;;7.00;;
70297;SDS011;57702;44.420;20.298;2023-02-01T00:36:19;22.63;;;7.38;;
70297;SDS011;57702;44.420;20.298;2023-02-01T00:38:45;25.33;;;4.90;;
70297;SDS011;57702;44.420;20.298;2023-02-01T00:41:15;10.32;;;4.45;;
70297;SDS011;57702;44.420;20.298;2023-02-01T00:43:43;11.75;;;3.80;;
70297;SDS011;57702;44.420;20.298;2023-02-01T00:46:09;4.63;;;3.30;;
70297;SDS011;57702;44.420;20.298;2023-02-01T00:48:36;16.05;;;5.47;;
70297;SDS011;57702;44.420;20.298;2023-02-01T00:51:06;6.25;;;2.67;;
70297;SDS011;57702;44.420;20.298;2023-02-01T00:53:33;9.32;;;4.13;;
70297;SDS011;57702;44.420;20.298;2023-02-01T00:55:59;9.73;;;2.55;;
70297;SDS011;57702;44.420;20.298;2023-02-01T00:58:26;6.90;;;3.67;;
70297;SDS011;57702;44.420;20.298;2023-02-01T01:03:31;13.27;;;4.03;;
70297;SDS011;57702;44.420;20.298;2023-02-01T01:05:58;4.72;;;2.72;;
70297;SDS011;57702;44.420;20.298;2023-02-01T01:08:25;5.75;;;4.70;;
70297;SDS011;57702;44.420;20.298;2023-02-01T01:10:51;9.20;;;3.88;;
70297;SDS011;57702;44.420;20.298;2023-02-01T01:13:17;7.32;;;3.83;;
70297;SDS011;57702;44.420;20.298;2023-02-01T01:15:43;5.88;;;2.78;;
70297;SDS011;57702;44.420;20.298;2023-02-01T01:18:10;22.10;;;6.22;;
70297;SDS011;57702;44.420;20.298;2023-02-01T01:20:37;14.68;;;5.10;;
70297;SDS011;57702;44.420;20.298;2023-02-01T01:23:03;10.27;;;3.85;;
70297;SDS011;57702;44.420;20.298;2023-02-01T01:25:30;9.38;;;4.32;;
70297;SDS011;57702;44.420;20.298;2023-02-01T01:27:56;7.40;;;3.13;;
70297;SDS011;57702;44.420;20.298;2023-02-01T01:30:23;9.88;;;4.65;;
70297;SDS011;57702;44.420;20.298;2023-02-01T01:32:49;12.68;;;6.03;;
70297;SDS011;57702;44.420;20.298;2023-02-01T01:35:15;16.70;;;6.88;;
70297;SDS011;57702;44.420;20.298;2023-02-01T01:37:41;12.30;;;5.82;;
70297;SDS011;57702;44.420;20.298;2023-02-01T01:40:09;24.63;;;7.75;;
70297;SDS011;57702;44.420;20.298;2023-02-01T01:42:41;14.63;;;6.13;;
70297;SDS011;57702;44.420;20.298;2023-02-01T01:50:07;19.75;;;8.02;;
70297;SDS011;57702;44.420;20.298;2023-02-01T01:52:34;17.20;;;7.65;;
70297;SDS011;57702;44.420;20.298;2023-02-01T01:55:01;25.70;;;7.97;;
70297;SDS011;57702;44.420;20.298;2023-02-01T01:57:28;3.95;;;3.65;;
70297;SDS011;57702;44.420;20.298;2023-02-01T02:00:00;12.05;;;6.15;;
70297;SDS011;57702;44.420;20.298;2023-02-01T02:02:28;25.80;;;5.57;;
70297;SDS011;57702;44.420;20.298;2023-02-01T02:04:55;19.20;;;5.65;;
70297;SDS011;57702;44.420;20.298;2023-02-01T02:07:23;17.77;;;3.83;;
70297;SDS011;57702;44.420;20.298;2023-02-01T02:09:50;4.95;;;4.38;;
70297;SDS011;57702;44.420;20.298;2023-02-01T02:12:17;5.68;;;2.60;;
70297;SDS011;57702;44.420;20.298;2023-02-01T02:14:43;7.53;;;4.72;;
70297;SDS011;57702;44.420;20.298;2023-02-01T02:35:55;2.95;;;2.75;;
70297;SDS011;57702;44.420;20.298;2023-02-01T02:38:31;3.45;;;1.70;;
70297;SDS011;57702;44.420;20.298;2023-02-01T02:41:10;2.78;;;1.52;;
70297;SDS011;57702;44.420;20.298;2023-02-01T02:43:59;1.88;;;1.65;;
70297;SDS011;57702;44.420;20.298;2023-02-01T02:46:46;3.92;;;1.85;;
70297;SDS011;57702;44.420;20.298;2023-02-01T02:52:38;1.63;;;1.08;;
70297;SDS011;57702;44.420;20.298;2023-02-01T02:55:26;4.40;;;1.77;;
70297;SDS011;57702;44.420;20.298;2023-02-01T02:57:52;2.50;;;1.40;;
70297;SDS011;57702;44.420;20.298;2023-02-01T03:00:37;1.90;;;1.27;;
70297;SDS011;57702;44.420;20.298;2023-02-01T03:03:23;2.10;;;2.00;;
70297;SDS011;57702;44.420;20.298;2023-02-01T03:06:14;1.15;;;1.15;;
70297;SDS011;57702;44.420;20.298;2023-02-01T03:08:42;14.25;;;3.28;;
70297;SDS011;57702;44.420;20.298;2023-02-01T03:11:11;12.68;;;2.78;;
70297;SDS011;57702;44.420;20.298;2023-02-01T03:13:40;27.48;;;4.05;;
70297;SDS011;57702;44.420;20.298;2023-02-01T03:21:08;1.25;;;1.00;;
70297;SDS011;57702;44.420;20.298;2023-02-01T03:23:36;4.50;;;3.13;;
70297;SDS011;57702;44.420;20.298;2023-02-01T03:26:07;8.93;;;2.63;;
70297;SDS011;57702;44.420;20.298;2023-02-01T03:28:35;6.20;;;3.40;;
70297;SDS011;57702;44.420;20.298;2023-02-01T03:31:03;1.88;;;1.83;;
70297;SDS011;57702;44.420;20.298;2023-02-01T03:33:30;2.28;;;2.17;;
70297;SDS011;57702;44.420;20.298;2023-02-01T03:41:00;5.10;;;2.92;;
70297;SDS011;57702;44.420;20.298;2023-02-01T03:43:27;4.47;;;2.97;;
70297;SDS011;57702;44.420;20.298;2023-02-01T03:45:57;13.02;;;4.10;;
70297;SDS011;57702;44.420;20.298;2023-02-01T03:48:24;11.50;;;3.95;;
70297;SDS011;57702;44.420;20.298;2023-02-01T03:50:53;15.40;;;4.28;;
70297;SDS011;57702;44.420;20.298;2023-02-01T03:53:21;6.63;;;2.97;;
70297;SDS011;57702;44.420;20.298;2023-02-01T03:55:49;23.90;;;5.85;;
70297;SDS011;57702;44.420;20.298;2023-02-01T03:58:20;13.43;;;5.95;;
70297;SDS011;57702;44.420;20.298;2023-02-01T04:00:50;8.15;;;4.75;;
70297;SDS011;57702;44.420;20.298;2023-02-01T04:03:17;6.60;;;4.43;;
70297;SDS011;57702;44.420;20.298;2023-02-01T04:05:43;3.50;;;2.78;;
70297;SDS011;57702;44.420;20.298;2023-02-01T04:08:10;5.80;;;3.97;;
70297;SDS011;57702;44.420;20.298;2023-02-01T04:10:36;5.18;;;3.83;;
70297;SDS011;57702;44.420;20.298;2023-02-01T04:13:02;6.65;;;3.88;;
70297;SDS011;57702;44.420;20.298;2023-02-01T04:15:28;23.55;;;4.93;;
70297;SDS011;57702;44.420;20.298;2023-02-01T04:17:54;14.90;;;3.75;;
70297;SDS011;57702;44.420;20.298;2023-02-01T04:20:21;6.55;;;3.60;;
70297;SDS011;57702;44.420;20.298;2023-02-01T04:22:47;19.85;;;7.32;;
70297;SDS011;57702;44.420;20.298;2023-02-01T04:25:13;17.92;;;7.13;;
70297;SDS011;57702;44.420;20.298;2023-02-01T04:27:42;17.42;;;6.43;;
70297;SDS011;57702;44.420;20.298;2023-02-01T04:30:08;10.63;;;4.80;;
70297;SDS011;57702;44.420;20.298;2023-02-01T04:32:38;7.40;;;4.57;;
70297;SDS011;57702;44.420;20.298;2023-02-01T04:35:04;12.65;;;4.22;;
70297;SDS011;57702;44.420;20.298;2023-02-01T04:37:31;12.10;;;4.57;;
70297;SDS011;57702;44.420;20.298;2023-02-01T04:39:57;10.40;;;4.18;;
70297;SDS011;57702;44.420;20.298;2023-02-01T04:42:23;2.85;;;2.75;;
70297;SDS011;57702;44.420;20.298;2023-02-01T04:44:49;5.03;;;3.25;;
70297;SDS011;57702;44.420;20.298;2023-02-01T04:47:16;4.60;;;2.88;;
70297;SDS011;57702;44.420;20.298;2023-02-01T04:49:42;14.88;;;4.50;;
70297;SDS011;57702;44.420;20.298;2023-02-01T04:52:08;11.55;;;2.83;;
70297;SDS011;57702;44.420;20.298;2023-02-01T04:54:35;2.55;;;2.17;;
70297;SDS011;57702;44.420;20.298;2023-02-01T04:57:01;10.48;;;5.15;;
70297;SDS011;57702;44.420;20.298;2023-02-01T04:59:27;9.50;;;4.07;;
70297;SDS011;57702;44.420;20.298;2023-02-01T05:01:53;24.25;;;3.80;;
70297;SDS011;57702;44.420;20.298;2023-02-01T05:04:20;9.88;;;3.60;;
70297;SDS011;57702;44.420;20.298;2023-02-01T05:06:46;4.03;;;3.75;;
70297;SDS011;57702;44.420;20.298;2023-02-01T05:09:12;3.13;;;2.92;;
70297;SDS011;57702;44.420;20.298;2023-02-01T05:11:38;4.10;;;2.53;;
70297;SDS011;57702;44.420;20.298;2023-02-01T05:14:23;4.63;;;3.53;;
70297;SDS011;57702;44.420;20.298;2023-02-01T05:16:49;5.90;;;2.53;;
70297;SDS011;57702;44.420;20.298;2023-02-01T05:19:15;29.73;;;4.13;;
70297;SDS011;57702;44.420;20.298;2023-02-01T05:21:41;4.20;;;3.47;;
70297;SDS011;57702;44.420;20.298;2023-02-01T05:24:08;3.80;;;2.58;;
70297;SDS011;57702;44.420;20.298;2023-02-01T05:26:34;4.63;;;2.80;;
70297;SDS011;57702;44.420;20.298;2023-02-01T05:29:00;6.63;;;4.50;;
70297;SDS011;57702;44.420;20.298;2023-02-01T05:31:27;6.68;;;4.38;;
70297;SDS011;57702;44.420;20.298;2023-02-01T05:33:53;11.77;;;5.40;;
70297;SDS011;57702;44.420;20.298;2023-02-01T05:36:19;5.13;;;4.43;;
70297;SDS011;57702;44.420;20.298;2023-02-01T05:38:45;6.65;;;4.05;;
70297;SDS011;57702;44.420;20.298;2023-02-01T05:41:11;5.82;;;3.17;;
70297;SDS011;57702;44.420;20.298;2023-02-01T05:43:38;8.70;;;3.92;;
70297;SDS011;57702;44.420;20.298;2023-02-01T05:46:04;3.97;;;2.22;;
70297;SDS011;57702;44.420;20.298;2023-02-01T05:48:30;9.73;;;5.15;;
70297;SDS011;57702;44.420;20.298;2023-02-01T05:50:56;29.85;;;8.27;;
70297;SDS011;57702;44.420;20.298;2023-02-01T05:53:23;52.15;;;8.13;;
70297;SDS011;57702;44.420;20.298;2023-02-01T05:55:49;10.18;;;4.03;;
70297;SDS011;57702;44.420;20.298;2023-02-01T05:58:16;12.75;;;7.85;;
70297;SDS011;57702;44.420;20.298;2023-02-01T06:00:43;21.52;;;5.15;;
70297;SDS011;57702;44.420;20.298;2023-02-01T06:03:09;8.88;;;3.95;;
70297;SDS011;57702;44.420;20.298;2023-02-01T06:05:35;13.45;;;5.63;;
70297;SDS011;57702;44.420;20.298;2023-02-01T06:08:02;19.52;;;7.63;;
70297;SDS011;57702;44.420;20.298;2023-02-01T06:10:28;37.75;;;10.43;;
70297;SDS011;57702;44.420;20.298;2023-02-01T06:12:54;34.15;;;13.77;;
70297;SDS011;57702;44.420;20.298;2023-02-01T06:15:21;120.88;;;28.00;;
70297;SDS011;57702;44.420;20.298;2023-02-01T06:17:47;187.73;;;67.60;;
70297;SDS011;57702;44.420;20.298;2023-02-01T06:20:13;260.55;;;78.85;;
70297;SDS011;57702;44.420;20.298;2023-02-01T06:22:40;88.57;;;33.00;;
70297;SDS011;57702;44.420;20.298;2023-02-01T06:25:07;131.68;;;44.80;;
70297;SDS011;57702;44.420;20.298;2023-02-01T06:27:34;122.60;;;37.28;;
70297;SDS011;57702;44.420;20.298;2023-02-01T06:30:01;176.68;;;41.33;;
70297;SDS011;57702;44.420;20.298;2023-02-01T06:32:28;184.05;;;49.95;;
70297;SDS011;57702;44.420;20.298;2023-02-01T06:34:54;228.80;;;57.90;;
70297;SDS011;57702;44.420;20.298;2023-02-01T06:37:22;110.38;;;33.13;;
70297;SDS011;57702;44.420;20.298;2023-02-01T06:39:50;50.03;;;22.67;;
70297;SDS011;57702;44.420;20.298;2023-02-01T06:42:16;55.65;;;23.23;;
70297;SDS011;57702;44.420;20.298;2023-02-01T06:44:42;41.70;;;16.15;;
70297;SDS011;57702;44.420;20.298;2023-02-01T06:47:09;29.90;;;14.55;;
70297;SDS011;57702;44.420;20.298;2023-02-01T06:49:35;25.50;;;12.38;;
70297;SDS011;57702;44.420;20.298;2023-02-01T06:52:01;31.92;;;11.15;;
70297;SDS011;57702;44.420;20.298;2023-02-01T06:54:28;42.03;;;14.27;;
70297;SDS011;57702;44.420;20.298;2023-02-01T06:56:57;70.22;;;21.40;;
70297;SDS011;57702;44.420;20.298;2023-02-01T06:59:23;23.23;;;14.38;;
70297;SDS011;57702;44.420;20.298;2023-02-01T07:01:50;42.92;;;15.73;;
70297;SDS011;57702;44.420;20.298;2023-02-01T07:04:17;31.40;;;14.63;;
70297;SDS011;57702;44.420;20.298;2023-02-01T07:06:43;44.78;;;14.25;;
70297;SDS011;57702;44.420;20.298;2023-02-01T07:09:10;22.13;;;11.48;;
70297;SDS011;57702;44.420;20.298;2023-02-01T07:11:37;26.08;;;11.43;;
70297;SDS011;57702;44.420;20.298;2023-02-01T07:14:08;22.75;;;10.85;;
70297;SDS011;57702;44.420;20.298;2023-02-01T07:16:35;26.15;;;10.88;;
70297;SDS011;57702;44.420;20.298;2023-02-01T07:19:01;18.38;;;11.45;;
70297;SDS011;57702;44.420;20.298;2023-02-01T07:21:28;10.63;;;4.85;;
70297;SDS011;57702;44.420;20.298;2023-02-01T07:23:56;19.35;;;6.75;;
70297;SDS011;57702;44.420;20.298;2023-02-01T07:26:28;18.58;;;6.93;;
70297;SDS011;57702;44.420;20.298;2023-02-01T07:28:54;8.57;;;5.57;;
70297;SDS011;57702;44.420;20.298;2023-02-01T07:31:20;25.65;;;6.00;;
70297;SDS011;57702;44.420;20.298;2023-02-01T07:33:47;11.20;;;5.18;;
70297;SDS011;57702;44.420;20.298;2023-02-01T07:36:17;26.95;;;11.63;;
70297;SDS011;57702;44.420;20.298;2023-02-01T07:38:44;12.88;;;6.32;;
70297;SDS011;57702;44.420;20.298;2023-02-01T07:41:12;20.42;;;5.32;;
70297;SDS011;57702;44.420;20.298;2023-02-01T07:43:38;13.05;;;4.28;;
70297;SDS011;57702;44.420;20.298;2023-02-01T07:46:05;12.02;;;5.47;;
70297;SDS011;57702;44.420;20.298;2023-02-01T07:48:32;24.00;;;9.15;;
70297;SDS011;57702;44.420;20.298;2023-02-01T07:51:05;14.98;;;6.30;;
70297;SDS011;57702;44.420;20.298;2023-02-01T07:53:32;18.77;;;4.82;;
70297;SDS011;57702;44.420;20.298;2023-02-01T07:55:58;16.25;;;6.88;;
70297;SDS011;57702;44.420;20.298;2023-02-01T07:58:25;45.83;;;7.93;;
70297;SDS011;57702;44.420;20.298;2023-02-01T08:00:52;21.98;;;8.60;;
70297;SDS011;57702;44.420;20.298;2023-02-01T08:03:37;28.60;;;8.48;;
70297;SDS011;57702;44.420;20.298;2023-02-01T08:06:04;19.45;;;10.90;;
70297;SDS011;57702;44.420;20.298;2023-02-01T08:08:31;23.83;;;8.88;;
70297;SDS011;57702;44.420;20.298;2023-02-01T08:10:59;18.42;;;7.63;;
70297;SDS011;57702;44.420;20.298;2023-02-01T08:13:29;19.63;;;8.50;;
70297;SDS011;57702;44.420;20.298;2023-02-01T08:15:59;12.80;;;8.90;;
70297;SDS011;57702;44.420;20.298;2023-02-01T08:18:25;25.95;;;10.55;;
70297;SDS011;57702;44.420;20.298;2023-02-01T08:20:51;31.83;;;6.40;;
70297;SDS011;57702;44.420;20.298;2023-02-01T08:23:18;13.80;;;5.97;;
70297;SDS011;57702;44.420;20.298;2023-02-01T08:25:45;37.92;;;11.50;;
70297;SDS011;57702;44.420;20.298;2023-02-01T08:28:21;16.00;;;5.53;;
70297;SDS011;57702;44.420;20.298;2023-02-01T08:30:50;15.13;;;5.82;;
70297;SDS011;57702;44.420;20.298;2023-02-01T08:33:17;10.52;;;4.57;;
70297;SDS011;57702;44.420;20.298;2023-02-01T08:35:43;11.65;;;6.18;;
70297;SDS011;57702;44.420;20.298;2023-02-01T08:38:21;22.35;;;5.82;;
70297;SDS011;57702;44.420;20.298;2023-02-01T08:40:47;12.20;;;5.97;;
70297;SDS011;57702;44.420;20.298;2023-02-01T08:43:14;11.23;;;5.60;;
70297;SDS011;57702;44.420;20.298;2023-02-01T08:45:40;20.13;;;6.95;;
70297;SDS011;57702;44.420;20.298;2023-02-01T08:48:06;10.68;;;5.28;;
70297;SDS011;57702;44.420;20.298;2023-02-01T08:50:33;10.25;;;5.18;;
70297;SDS011;57702;44.420;20.298;2023-02-01T08:52:59;14.55;;;6.00;;
70297;SDS011;57702;44.420;20.298;2023-02-01T08:55:25;19.17;;;6.78;;
70297;SDS011;57702;44.420;20.298;2023-02-01T08:57:51;11.23;;;6.13;;
70297;SDS011;57702;44.420;20.298;2023-02-01T09:00:17;67.82;;;17.98;;
70297;SDS011;57702;44.420;20.298;2023-02-01T09:02:44;66.68;;;20.17;;
70297;SDS011;57702;44.420;20.298;2023-02-01T09:05:10;46.38;;;14.50;;
70297;SDS011;57702;44.420;20.298;2023-02-01T09:07:39;30.95;;;12.52;;
70297;SDS011;57702;44.420;20.298;2023-02-01T09:10:05;50.67;;;15.23;;
70297;SDS011;57702;44.420;20.298;2023-02-01T09:12:32;22.55;;;12.05;;
70297;SDS011;57702;44.420;20.298;2023-02-01T09:14:59;15.80;;;7.68;;
70297;SDS011;57702;44.420;20.298;2023-02-01T09:17:26;18.55;;;8.00;;
70297;SDS011;57702;44.420;20.298;2023-02-01T09:19:52;10.00;;;6.68;;
70297;SDS011;57702;44.420;20.298;2023-02-01T09:22:19;14.23;;;7.03;;
70297;SDS011;57702;44.420;20.298;2023-02-01T09:24:45;21.77;;;8.60;;
70297;SDS011;57702;44.420;20.298;2023-02-01T09:27:11;13.85;;;6.88;;
70297;SDS011;57702;44.420;20.298;2023-02-01T09:29:49;21.85;;;5.13;;
70297;SDS011;57702;44.420;20.298;2023-02-01T09:32:22;14.65;;;3.80;;
70297;SDS011;57702;44.420;20.298;2023-02-01T09:34:49;13.80;;;2.70;;
70297;SDS011;57702;44.420;20.298;2023-02-01T09:37:16;3.15;;;2.78;;
70297;SDS011;57702;44.420;20.298;2023-02-01T09:39:47;4.72;;;2.03;;
70297;SDS011;57702;44.420;20.298;2023-02-01T09:47:30;5.68;;;2.08;;
70297;SDS011;57702;44.420;20.298;2023-02-01T09:50:05;10.15;;;2.58;;
70297;SDS011;57702;44.420;20.298;2023-02-01T09:52:43;15.55;;;6.22;;
70297;SDS011;57702;44.420;20.298;2023-02-01T09:55:24;9.85;;;4.63;;
70297;SDS011;57702;44.420;20.298;2023-02-01T09:58:32;10.48;;;4.97;;
70297;SDS011;57702;44.420;20.298;2023-02-01T10:01:02;17.42;;;5.22;;
70297;SDS011;57702;44.420;20.298;2023-02-01T10:03:32;21.80;;;6.38;;
70297;SDS011;57702;44.420;20.298;2023-02-01T10:06:49;13.98;;;4.05;;
70297;SDS011;57702;44.420;20.298;2023-02-01T10:09:07;4.35;;;3.15;;
70297;SDS011;57702;44.420;20.298;2023-02-01T10:11:42;1.98;;;1.88;;
70297;SDS011;57702;44.420;20.298;2023-02-01T10:22:08;5.38;;;2.13;;
70297;SDS011;57702;44.420;20.298;2023-02-01T10:27:20;21.48;;;3.60;;
70297;SDS011;57702;44.420;20.298;2023-02-01T10:29:49;2.78;;;2.58;;
70297;SDS011;57702;44.420;20.298;2023-02-01T10:32:20;5.82;;;2.60;;
70297;SDS011;57702;44.420;20.298;2023-02-01T10:35:30;10.70;;;3.92;;
70297;SDS011;57702;44.420;20.298;2023-02-01T10:37:36;2.53;;;1.15;;
70297;SDS011;57702;44.420;20.298;2023-02-01T10:40:16;1.65;;;1.35;;
70297;SDS011;57702;44.420;20.298;2023-02-01T10:42:43;1.73;;;1.63;;
70297;SDS011;57702;44.420;20.298;2023-02-01T10:45:16;2.72;;;1.63;;
70297;SDS011;57702;44.420;20.298;2023-02-01T10:47:43;1.45;;;1.42;;
70297;SDS011;57702;44.420;20.298;2023-02-01T10:58:14;13.27;;;2.58;;
70297;SDS011;57702;44.420;20.298;2023-02-01T11:00:48;1.15;;;1.08;;
70297;SDS011;57702;44.420;20.298;2023-02-01T11:03:27;3.38;;;2.35;;
70297;SDS011;57702;44.420;20.298;2023-02-01T11:05:56;2.03;;;1.85;;
70297;SDS011;57702;44.420;20.298;2023-02-01T11:08:23;2.17;;;1.80;;
70297;SDS011;57702;44.420;20.298;2023-02-01T11:10:57;5.10;;;2.25;;
70297;SDS011;57702;44.420;20.298;2023-02-01T11:13:27;1.67;;;1.58;;
70297;SDS011;57702;44.420;20.298;2023-02-01T11:15:54;7.57;;;1.40;;
70297;SDS011;57702;44.420;20.298;2023-02-01T11:18:25;1.50;;;1.40;;
70297;SDS011;57702;44.420;20.298;2023-02-01T11:20:52;8.00;;;1.90;;
70297;SDS011;57702;44.420;20.298;2023-02-01T11:23:21;1.83;;;1.73;;
70297;SDS011;57702;44.420;20.298;2023-02-01T11:25:49;6.25;;;1.63;;
70297;SDS011;57702;44.420;20.298;2023-02-01T11:28:17;5.43;;;2.08;;
70297;SDS011;57702;44.420;20.298;2023-02-01T11:34:37;1.63;;;1.20;;
70297;SDS011;57702;44.420;20.298;2023-02-01T11:36:57;3.63;;;1.52;;
70297;SDS011;57702;44.420;20.298;2023-02-01T11:39:25;8.98;;;1.20;;
70297;SDS011;57702;44.420;20.298;2023-02-01T11:42:11;1.92;;;1.13;;
70297;SDS011;57702;44.420;20.298;2023-02-01T11:44:39;6.30;;;1.27;;
70297;SDS011;57702;44.420;20.298;2023-02-01T11:47:25;5.13;;;1.55;;
70297;SDS011;57702;44.420;20.298;2023-02-01T11:49:53;5.82;;;1.30;;
70297;SDS011;57702;44.420;20.298;2023-02-01T12:03:25;0.70;;;0.68;;
70297;SDS011;57702;44.420;20.298;2023-02-01T12:05:59;1.00;;;0.73;;
70297;SDS011;57702;44.420;20.298;2023-02-01T12:13:53;3.28;;;1.05;;
70297;SDS011;57702;44.420;20.298;2023-02-01T12:16:30;0.90;;;0.90;;
70297;SDS011;57702;44.420;20.298;2023-02-01T12:45:31;1.77;;;0.40;;
70297;SDS011;57702;44.420;20.298;2023-02-01T12:50:36;0.50;;;0.50;;
70297;SDS011;57702;44.420;20.298;2023-02-01T12:55:38;0.40;;;0.40;;
70297;SDS011;57702;44.420;20.298;2023-02-01T12:58:16;0.70;;;0.70;;
70297;SDS011;57702;44.420;20.298;2023-02-01T13:00:44;0.60;;;0.60;;
70297;SDS011;57702;44.420;20.298;2023-02-01T13:06:04;0.20;;;0.20;;
70297;SDS011;57702;44.420;20.298;2023-02-01T13:08:54;7.07;;;1.95;;
70297;SDS011;57702;44.420;20.298;2023-02-01T13:11:30;0.52;;;0.52;;
70297;SDS011;57702;44.420;20.298;2023-02-01T13:14:05;1.17;;;0.80;;
70297;SDS011;57702;44.420;20.298;2023-02-01T13:16:38;88.82;;;13.30;;
70297;SDS011;57702;44.420;20.298;2023-02-01T13:19:12;14.85;;;5.45;;
70297;SDS011;57702;44.420;20.298;2023-02-01T13:21:40;1.17;;;0.70;;
70297;SDS011;57702;44.420;20.298;2023-02-01T13:27:00;3.35;;;1.80;;
70297;SDS011;57702;44.420;20.298;2023-02-01T13:29:27;0.75;;;0.75;;
70297;SDS011;57702;44.420;20.298;2023-02-01T13:32:20;14.15;;;0.82;;
70297;SDS011;57702;44.420;20.298;2023-02-01T13:37:27;3.88;;;1.85;;
70297;SDS011;57702;44.420;20.298;2023-02-01T13:40:05;1.42;;;1.05;;
70297;SDS011;57702;44.420;20.298;2023-02-01T13:42:35;6.68;;;3.08;;
70297;SDS011;57702;44.420;20.298;2023-02-01T13:45:14;82.05;;;11.65;;
70297;SDS011;57702;44.420;20.298;2023-02-01T13:47:42;19.33;;;4.85;;
70297;SDS011;57702;44.420;20.298;2023-02-01T13:52:43;3.55;;;0.77;;
70297;SDS011;57702;44.420;20.298;2023-02-01T13:57:40;7.47;;;1.63;;
70297;SDS011;57702;44.420;20.298;2023-02-01T14:02:50;6.57;;;1.50;;
70297;SDS011;57702;44.420;20.298;2023-02-01T14:16:16;17.17;;;1.98;;
70297;SDS011;57702;44.420;20.298;2023-02-01T14:21:28;1.63;;;1.55;;
70297;SDS011;57702;44.420;20.298;2023-02-01T14:23:59;10.63;;;2.22;;
70297;SDS011;57702;44.420;20.298;2023-02-01T14:26:28;14.77;;;5.68;;
70297;SDS011;57702;44.420;20.298;2023-02-01T14:31:47;2.33;;;1.50;;
70297;SDS011;57702;44.420;20.298;2023-02-01T14:34:21;1.55;;;1.20;;
70297;SDS011;57702;44.420;20.298;2023-02-01T14:36:50;7.32;;;1.83;;
70297;SDS011;57702;44.420;20.298;2023-02-01T14:39:18;5.07;;;0.75;;
70297;SDS011;57702;44.420;20.298;2023-02-01T14:41:46;7.20;;;1.02;;
70297;SDS011;57702;44.420;20.298;2023-02-01T14:44:14;6.88;;;1.45;;
70297;SDS011;57702;44.420;20.298;2023-02-01T14:49:28;4.88;;;0.52;;
70297;SDS011;57702;44.420;20.298;2023-02-01T14:51:56;3.80;;;2.05;;
70297;SDS011;57702;44.420;20.298;2023-02-01T14:54:25;13.90;;;2.30;;
70297;SDS011;57702;44.420;20.298;2023-02-01T14:56:52;13.43;;;4.88;;
70297;SDS011;57702;44.420;20.298;2023-02-01T14:59:20;44.33;;;11.57;;
70297;SDS011;57702;44.420;20.298;2023-02-01T15:01:53;94.35;;;20.67;;
70297;SDS011;57702;44.420;20.298;2023-02-01T15:04:20;15.85;;;7.38;;
70297;SDS011;57702;44.420;20.298;2023-02-01T15:06:56;72.22;;;19.58;;
70297;SDS011;57702;44.420;20.298;2023-02-01T15:12:01;87.65;;;28.17;;
70297;SDS011;57702;44.420;20.298;2023-02-01T15:14:29;87.45;;;27.98;;
70297;SDS011;57702;44.420;20.298;2023-02-01T15:16:55;147.05;;;35.90;;
70297;SDS011;57702;44.420;20.298;2023-02-01T15:19:22;160.90;;;36.00;;
70297;SDS011;57702;44.420;20.298;2023-02-01T15:21:50;80.00;;;26.58;;
70297;SDS011;57702;44.420;20.298;2023-02-01T15:26:46;117.40;;;36.35;;
70297;SDS011;57702;44.420;20.298;2023-02-01T15:29:13;46.58;;;18.13;;
70297;SDS011;57702;44.420;20.298;2023-02-01T15:31:41;21.55;;;11.30;;
70297;SDS011;57702;44.420;20.298;2023-02-01T15:34:08;19.67;;;9.88;;
70297;SDS011;57702;44.420;20.298;2023-02-01T15:36:34;13.88;;;4.65;;
70297;SDS011;57702;44.420;20.298;2023-02-01T15:39:16;9.10;;;5.32;;
70297;SDS011;57702;44.420;20.298;2023-02-01T15:42:11;297.20;;;67.57;;
70297;SDS011;57702;44.420;20.298;2023-02-01T15:44:37;23.20;;;14.40;;
70297;SDS011;57702;44.420;20.298;2023-02-01T15:47:13;13.27;;;7.23;;
70297;SDS011;57702;44.420;20.298;2023-02-01T15:49:41;72.38;;;14.35;;
70297;SDS011;57702;44.420;20.298;2023-02-01T15:52:13;19.98;;;11.27;;
70297;SDS011;57702;44.420;20.298;2023-02-01T15:54:49;15.70;;;7.28;;
70297;SDS011;57702;44.420;20.298;2023-02-01T15:57:24;5.05;;;3.13;;
70297;SDS011;57702;44.420;20.298;2023-02-01T15:59:55;13.00;;;5.57;;
70297;SDS011;57702;44.420;20.298;2023-02-01T16:02:26;5.32;;;3.75;;
70297;SDS011;57702;44.420;20.298;2023-02-01T16:04:53;56.90;;;6.30;;
70297;SDS011;57702;44.420;20.298;2023-02-01T16:07:31;29.05;;;8.27;;
70297;SDS011;57702;44.420;20.298;2023-02-01T16:09:58;23.05;;;9.32;;
70297;SDS011;57702;44.420;20.298;2023-02-01T16:14:59;19.60;;;7.72;;
70297;SDS011;57702;44.420;20.298;2023-02-01T16:17:25;33.53;;;9.90;;
70297;SDS011;57702;44.420;20.298;2023-02-01T16:19:51;26.77;;;10.10;;
70297;SDS011;57702;44.420;20.298;2023-02-01T16:22:17;20.35;;;8.20;;
70297;SDS011;57702;44.420;20.298;2023-02-01T16:24:44;58.10;;;13.48;;
70297;SDS011;57702;44.420;20.298;2023-02-01T16:27:10;100.60;;;29.48;;
70297;SDS011;57702;44.420;20.298;2023-02-01T16:29:36;80.00;;;18.90;;
70297;SDS011;57702;44.420;20.298;2023-02-01T16:32:03;83.75;;;17.77;;
70297;SDS011;57702;44.420;20.298;2023-02-01T16:34:29;37.75;;;12.55;;
70297;SDS011;57702;44.420;20.298;2023-02-01T16:36:56;45.03;;;10.90;;
70297;SDS011;57702;44.420;20.298;2023-02-01T16:39:22;45.80;;;9.38;;
70297;SDS011;57702;44.420;20.298;2023-02-01T16:41:49;19.55;;;8.93;;
70297;SDS011;57702;44.420;20.298;2023-02-01T16:44:16;29.67;;;7.75;;
70297;SDS011;57702;44.420;20.298;2023-02-01T16:46:45;28.88;;;8.00;;
70297;SDS011;57702;44.420;20.298;2023-02-01T16:49:19;22.35;;;7.68;;
70297;SDS011;57702;44.420;20.298;2023-02-01T16:51:45;32.33;;;8.95;;
70297;SDS011;57702;44.420;20.298;2023-02-01T16:54:13;20.20;;;7.37;;
70297;SDS011;57702;44.420;20.298;2023-02-01T16:56:39;25.58;;;6.32;;
70297;SDS011;57702;44.420;20.298;2023-02-01T16:59:07;47.05;;;13.95;;
70297;SDS011;57702;44.420;20.298;2023-02-01T17:01:33;77.70;;;18.30;;
70297;SDS011;57702;44.420;20.298;2023-02-01T17:04:01;48.90;;;15.43;;
70297;SDS011;57702;44.420;20.298;2023-02-01T17:06:28;17.77;;;8.40;;
70297;SDS011;57702;44.420;20.298;2023-02-01T17:08:55;26.27;;;13.25;;
70297;SDS011;57702;44.420;20.298;2023-02-01T17:11:23;40.58;;;15.25;;
70297;SDS011;57702;44.420;20.298;2023-02-01T17:13:49;15.65;;;6.22;;